createdAt,value
2018-10-11T00:01:03.935Z,1005.22
2018-10-11T00:02:14.135Z,1005.25
2018-10-11T00:03:24.040Z,1005.22
2018-10-11T00:04:34.295Z,1005.24
2018-10-11T00:05:44.220Z,1005.24
2018-10-11T00:06:54.425Z,1005.26
2018-10-11T00:08:06.212Z,1005.25
2018-10-11T00:09:16.406Z,1005.26
2018-10-11T00:10:26.332Z,1005.28
2018-10-11T00:11:36.522Z,1005.26
2018-10-11T00:12:46.696Z,1005.27
2018-10-11T00:13:56.936Z,1005.24
2018-10-11T00:15:06.840Z,1005.24
2018-10-11T00:16:16.772Z,1005.24
2018-10-11T00:17:26.945Z,1005.27
2018-10-11T00:18:37.138Z,1005.24
2018-10-11T00:19:47.353Z,1005.22
2018-10-11T00:20:58.129Z,1005.24
2018-10-11T00:22:08.384Z,1005.18
2018-10-11T00:23:18.809Z,1005.19
2018-10-11T00:24:29.251Z,1005.18
2018-10-11T00:25:39.173Z,1005.23
2018-10-11T00:26:49.100Z,1005.22
2018-10-11T00:27:59.289Z,1005.2
2018-10-11T00:29:09.200Z,1005.2
2018-10-11T00:30:19.418Z,1005.23
2018-10-11T00:31:29.466Z,1005.27
2018-10-11T00:32:39.379Z,1005.3
2018-10-11T00:33:49.627Z,1005.32
2018-10-11T00:34:59.799Z,1005.3
2018-10-11T00:36:10.020Z,1005.34
2018-10-11T00:37:20.222Z,1005.34
2018-10-11T00:38:30.464Z,1005.3
2018-10-11T00:39:40.637Z,1005.33
2018-10-11T00:40:50.603Z,1005.32
2018-10-11T00:42:00.972Z,1005.3
2018-10-11T00:43:10.907Z,1005.28
2018-10-11T00:44:21.105Z,1005.24
2018-10-11T00:45:31.483Z,1005.25
2018-10-11T00:46:41.667Z,1005.25
2018-10-11T00:47:51.917Z,1005.24
2018-10-11T00:49:03.548Z,1005.24
2018-10-11T00:50:13.748Z,1005.26
2018-10-11T00:51:23.985Z,1005.27
2018-10-11T00:52:34.431Z,1005.28
2018-10-11T00:53:44.696Z,1005.29
2018-10-11T00:54:54.931Z,1005.28
2018-10-11T00:56:04.840Z,1005.28
2018-10-11T00:57:15.050Z,1005.28
2018-10-11T00:58:24.701Z,1005.26
2018-10-11T00:59:34.887Z,1005.21
2018-10-11T01:00:45.066Z,1005.24
2018-10-11T01:01:55.260Z,1005.26
2018-10-11T01:03:05.235Z,1005.26
2018-10-11T01:04:15.227Z,1005.26
2018-10-11T01:05:25.433Z,1005.25
2018-10-11T01:06:35.619Z,1005.24
2018-10-11T01:07:45.550Z,1005.27
2018-10-11T01:08:55.484Z,1005.29
2018-10-11T01:10:05.760Z,1005.23
2018-10-11T01:11:15.638Z,1005.25
2018-10-11T01:12:25.612Z,1005.22
2018-10-11T01:13:35.899Z,1005.24
2018-10-11T01:14:46.143Z,1005.24
2018-10-11T01:15:56.341Z,1005.23
2018-10-11T01:17:06.523Z,1005.27
2018-10-11T01:18:16.732Z,1005.26
2018-10-11T01:19:27.002Z,1005.24
2018-10-11T01:20:37.133Z,1005.19
2018-10-11T01:21:47.084Z,1005.19
2018-10-11T01:22:57.264Z,1005.18
2018-10-11T01:24:07.463Z,1005.2
2018-10-11T01:25:17.660Z,1005.15
2018-10-11T01:26:27.904Z,1005.16
2018-10-11T01:27:38.156Z,1005.13
2018-10-11T01:28:48.355Z,1005.15
2018-10-11T01:29:58.579Z,1005.17
2018-10-11T01:31:09.477Z,1005.14
2018-10-11T01:32:19.395Z,1005.12
2018-10-11T01:33:29.581Z,1005.11
2018-10-11T01:34:39.773Z,1005.11
2018-10-11T01:35:50.009Z,1005.12
2018-10-11T01:37:00.192Z,1005.13
2018-10-11T01:38:10.385Z,1005.12
2018-10-11T01:39:20.377Z,1005.15
2018-10-11T01:40:30.591Z,1005.15
2018-10-11T01:41:40.785Z,1005.15
2018-10-11T01:42:50.967Z,1005.17
2018-10-11T01:44:01.199Z,1005.21
2018-10-11T01:45:11.393Z,1005.15
2018-10-11T01:46:21.591Z,1005.15
2018-10-11T01:47:31.786Z,1005.15
2018-10-11T01:48:41.929Z,1005.17
2018-10-11T01:49:52.168Z,1005.14
2018-10-11T01:51:02.370Z,1005.15
2018-10-11T01:52:12.616Z,1005.13
2018-10-11T01:53:22.803Z,1005.14
2018-10-11T01:54:32.758Z,1005.1
2018-10-11T01:55:42.998Z,1005.09
2018-10-11T01:56:53.208Z,1005.13
2018-10-11T01:58:04.793Z,1005.15
2018-10-11T01:59:14.449Z,1005.11
2018-10-11T02:00:24.868Z,1005.07
2018-10-11T02:01:35.123Z,1005.07
2018-10-11T02:02:45.020Z,1005.03
2018-10-11T02:03:55.205Z,1005.05
2018-10-11T02:05:05.321Z,1005.01
2018-10-11T02:06:14.983Z,1005.02
2018-10-11T02:07:25.046Z,1005.03
2018-10-11T02:08:35.234Z,1005.01
2018-10-11T02:09:45.432Z,1004.99
2018-10-11T02:10:55.639Z,1004.94
2018-10-11T02:12:05.825Z,1004.96
2018-10-11T02:13:15.727Z,1004.93
2018-10-11T02:14:25.906Z,1004.95
2018-10-11T02:15:36.068Z,1004.91
2018-10-11T02:16:46.268Z,1004.89
2018-10-11T02:17:56.452Z,1004.97
2018-10-11T02:19:06.906Z,1004.97
2018-10-11T02:20:17.065Z,1004.97
2018-10-11T02:21:26.700Z,1004.98
2018-10-11T02:22:36.891Z,1005
2018-10-11T02:23:47.089Z,1004.99
2018-10-11T02:24:57.261Z,1004.96
2018-10-11T02:26:08.374Z,1004.95
2018-10-11T02:27:18.595Z,1004.98
2018-10-11T02:28:28.545Z,1004.94
2018-10-11T02:29:38.841Z,1004.94
2018-10-11T02:30:48.756Z,1004.93
2018-10-11T02:31:59.038Z,1004.97
2018-10-11T02:33:10.823Z,1004.94
2018-10-11T02:34:21.026Z,1004.97
2018-10-11T02:35:31.202Z,1004.91
2018-10-11T02:36:41.189Z,1004.9
2018-10-11T02:37:51.392Z,1004.88
2018-10-11T02:39:03.554Z,1004.93
2018-10-11T02:40:14.199Z,1004.84
2018-10-11T02:41:24.420Z,1004.85
2018-10-11T02:42:34.396Z,1004.83
2018-10-11T02:43:44.632Z,1004.86
2018-10-11T02:44:54.546Z,1004.84
2018-10-11T02:46:04.689Z,1004.82
2018-10-11T02:47:14.895Z,1004.84
2018-10-11T02:48:24.819Z,1004.79
2018-10-11T02:49:35.021Z,1004.8
2018-10-11T02:50:45.215Z,1004.77
2018-10-11T02:51:55.412Z,1004.73
2018-10-11T02:53:05.328Z,1004.72
2018-10-11T02:54:16.335Z,1004.72
2018-10-11T02:55:26.536Z,1004.64
2018-10-11T02:56:36.727Z,1004.64
2018-10-11T02:57:46.112Z,1004.64
2018-10-11T02:58:56.302Z,1004.62
2018-10-11T03:00:08.547Z,1004.67
2018-10-11T03:01:18.751Z,1004.67
2018-10-11T03:02:28.930Z,1004.67
2018-10-11T03:34:48.442Z,1004.58
2018-10-11T03:35:58.622Z,1004.55
2018-10-11T03:37:09.124Z,1004.55
2018-10-11T03:38:19.392Z,1004.61
2018-10-11T03:39:29.584Z,1004.63
2018-10-11T03:40:39.817Z,1004.64
2018-10-11T03:41:49.765Z,1004.65
2018-10-11T03:42:59.988Z,1004.65
2018-10-11T03:44:11.335Z,1004.67
2018-10-11T03:45:21.512Z,1004.64
2018-10-11T03:46:31.775Z,1004.68
2018-10-11T03:47:42.702Z,1004.68
2018-10-11T03:48:52.999Z,1004.75
2018-10-11T03:50:03.231Z,1004.8
2018-10-11T03:51:13.152Z,1004.83
2018-10-11T03:52:23.072Z,1004.88
2018-10-11T03:53:32.988Z,1004.85
2018-10-11T03:54:43.180Z,1004.81
2018-10-11T03:55:53.370Z,1004.83
2018-10-11T03:57:03.561Z,1004.84
2018-10-11T03:58:13.214Z,1004.81
2018-10-11T03:59:23.413Z,1004.8
2018-10-11T04:00:33.626Z,1004.79
2018-10-11T04:01:43.809Z,1004.78
2018-10-11T04:02:54.256Z,1004.78
2018-10-11T04:04:04.448Z,1004.74
2018-10-11T04:05:14.628Z,1004.7
2018-10-11T04:06:24.780Z,1004.7
2018-10-11T04:07:34.992Z,1004.66
2018-10-11T04:08:45.500Z,1004.69
2018-10-11T04:09:55.806Z,1004.68
2018-10-11T04:11:08.017Z,1004.65
2018-10-11T04:12:18.099Z,1004.64
2018-10-11T04:13:28.186Z,1004.63
2018-10-11T04:14:38.059Z,1004.64
2018-10-11T04:15:48.179Z,1004.65
2018-10-11T04:16:57.993Z,1004.64
2018-10-11T04:18:09.087Z,1004.64
2018-10-11T04:19:18.969Z,1004.65
2018-10-11T04:20:29.155Z,1004.64
2018-10-11T04:21:39.218Z,1004.64
2018-10-11T04:22:49.540Z,1004.62
2018-10-11T04:23:59.835Z,1004.68
2018-10-11T04:25:09.926Z,1004.64
2018-10-11T04:26:19.730Z,1004.67
2018-10-11T04:27:29.951Z,1004.65
2018-10-11T04:28:40.150Z,1004.67
2018-10-11T04:29:50.224Z,1004.67
2018-10-11T04:31:02.639Z,1004.65
2018-10-11T04:32:12.738Z,1004.67
2018-10-11T04:33:22.607Z,1004.7
2018-10-11T04:34:32.445Z,1004.71
2018-10-11T04:35:42.259Z,1004.73
2018-10-11T04:36:52.322Z,1004.76
2018-10-11T04:38:02.404Z,1004.77
2018-10-11T04:39:12.484Z,1004.75
2018-10-11T04:40:22.549Z,1004.7
2018-10-11T04:41:32.647Z,1004.71
2018-10-11T04:42:42.807Z,1004.69
2018-10-11T04:43:53.634Z,1004.72
2018-10-11T04:45:03.502Z,1004.72
2018-10-11T04:46:13.878Z,1004.74
2018-10-11T04:47:23.950Z,1004.69
2018-10-11T04:48:33.966Z,1004.69
2018-10-11T04:49:43.794Z,1004.68
2018-10-11T04:50:53.827Z,1004.69
2018-10-11T04:52:03.917Z,1004.74
2018-10-11T04:53:13.976Z,1004.75
2018-10-11T04:54:23.835Z,1004.74
2018-10-11T04:55:33.943Z,1004.76
2018-10-11T04:56:43.565Z,1004.74
2018-10-11T04:57:53.922Z,1004.73
2018-10-11T04:59:05.787Z,1004.78
2018-10-11T05:00:15.660Z,1004.79
2018-10-11T05:01:25.472Z,1004.79
2018-10-11T05:02:35.281Z,1004.77
2018-10-11T05:03:45.377Z,1004.8
2018-10-11T05:04:55.440Z,1004.8
2018-10-11T05:06:07.645Z,1004.82
2018-10-11T05:07:17.733Z,1004.83
2018-10-11T05:08:27.859Z,1004.83
2018-10-11T05:09:37.930Z,1004.81
2018-10-11T05:10:48.004Z,1004.84
2018-10-11T05:11:57.820Z,1004.83
2018-10-11T05:13:08.004Z,1004.84
2018-10-11T05:14:18.359Z,1004.82
2018-10-11T05:15:28.182Z,1004.83
2018-10-11T05:16:38.543Z,1004.84
2018-10-11T05:17:48.608Z,1004.84
2018-10-11T05:18:58.672Z,1004.83
2018-10-11T05:20:08.539Z,1004.82
2018-10-11T05:21:18.643Z,1004.83
2018-10-11T05:22:29.001Z,1004.85
2018-10-11T05:23:39.100Z,1004.88
2018-10-11T05:24:49.171Z,1004.88
2018-10-11T05:25:59.013Z,1004.9
2018-10-11T05:27:09.512Z,1004.87
2018-10-11T05:28:19.588Z,1004.89
2018-10-11T05:29:29.690Z,1004.92
2018-10-11T05:30:39.819Z,1004.9
2018-10-11T05:31:49.672Z,1004.94
2018-10-11T05:32:59.767Z,1004.94
2018-10-11T05:34:09.304Z,1004.98
2018-10-11T05:35:19.439Z,1005
2018-10-11T05:36:29.566Z,1005.02
2018-10-11T05:37:39.434Z,1005.02
2018-10-11T05:38:49.297Z,1005.06
2018-10-11T05:39:59.407Z,1005.03
2018-10-11T05:41:09.488Z,1005.06
2018-10-11T05:42:19.574Z,1005.09
2018-10-11T05:43:29.691Z,1005.07
2018-10-11T05:44:39.780Z,1005.04
2018-10-11T05:45:49.863Z,1005.07
2018-10-11T05:46:59.998Z,1005.12
2018-10-11T05:48:10.125Z,1005.15
2018-10-11T05:49:20.161Z,1005.14
2018-10-11T05:50:30.033Z,1005.1
2018-10-11T05:51:39.843Z,1005.14
2018-10-11T05:52:49.935Z,1005.16
2018-10-11T05:54:00.022Z,1005.12
2018-10-11T05:55:10.190Z,1005.14
2018-10-11T05:56:20.283Z,1005.13
2018-10-11T05:57:30.277Z,1005.1
2018-10-11T05:58:40.161Z,1005.11
2018-10-11T05:59:50.268Z,1005.12
2018-10-11T06:01:03.492Z,1005.1
2018-10-11T06:02:13.304Z,1005.11
2018-10-11T06:03:23.151Z,1005.14
2018-10-11T06:04:33.243Z,1005.16
2018-10-11T06:05:43.340Z,1005.23
2018-10-11T06:06:53.458Z,1005.21
2018-10-11T06:08:03.885Z,1005.23
2018-10-11T06:09:13.960Z,1005.19
2018-10-11T06:10:24.032Z,1005.22
2018-10-11T06:11:34.096Z,1005.24
2018-10-11T06:12:44.219Z,1005.22
2018-10-11T06:13:54.296Z,1005.19
2018-10-11T06:15:04.375Z,1005.19
2018-10-11T06:16:14.192Z,1005.2
2018-10-11T06:17:24.311Z,1005.18
2018-10-11T06:18:34.391Z,1005.21
2018-10-11T06:19:44.321Z,1005.22
2018-10-11T06:20:54.412Z,1005.22
2018-10-11T06:22:04.500Z,1005.23
2018-10-11T06:23:14.312Z,1005.19
2018-10-11T06:24:24.447Z,1005.24
2018-10-11T06:25:34.530Z,1005.27
2018-10-11T06:26:44.651Z,1005.27
2018-10-11T06:27:54.749Z,1005.26
2018-10-11T06:29:04.564Z,1005.31
2018-10-11T06:30:14.826Z,1005.27
2018-10-11T06:31:25.366Z,1005.29
2018-10-11T06:32:35.499Z,1005.3
2018-10-11T06:33:45.599Z,1005.29
2018-10-11T06:34:55.703Z,1005.26
2018-10-11T06:36:05.928Z,1005.3
2018-10-11T06:37:15.871Z,1005.27
2018-10-11T06:38:26.043Z,1005.24
2018-10-11T06:39:36.371Z,1005.26
2018-10-11T06:40:46.489Z,1005.34
2018-10-11T06:41:56.847Z,1005.32
2018-10-11T06:43:06.740Z,1005.35
2018-10-11T06:44:16.342Z,1005.36
2018-10-11T06:45:26.445Z,1005.39
2018-10-11T06:46:36.557Z,1005.31
2018-10-11T06:47:46.088Z,1005.36
2018-10-11T06:48:56.196Z,1005.39
2018-10-11T06:50:06.461Z,1005.37
2018-10-11T06:51:17.243Z,1005.41
2018-10-11T06:52:27.413Z,1005.39
2018-10-11T06:53:37.284Z,1005.42
2018-10-11T06:54:47.129Z,1005.42
2018-10-11T06:55:57.507Z,1005.45
2018-10-11T06:57:08.256Z,1005.45
2018-10-11T06:58:18.326Z,1005.51
2018-10-11T06:59:28.181Z,1005.51
2018-10-11T07:00:38.242Z,1005.5
2018-10-11T07:01:48.424Z,1005.46
2018-10-11T07:02:59.154Z,1005.43
2018-10-11T07:04:08.986Z,1005.45
2018-10-11T07:05:19.078Z,1005.43
2018-10-11T07:06:29.191Z,1005.44
2018-10-11T07:07:39.273Z,1005.46
2018-10-11T07:08:49.368Z,1005.48
2018-10-11T07:09:59.526Z,1005.51
2018-10-11T07:11:11.119Z,1005.53
2018-10-11T07:12:21.204Z,1005.5
2018-10-11T07:13:31.300Z,1005.53
2018-10-11T07:14:41.131Z,1005.56
2018-10-11T07:15:51.250Z,1005.53
2018-10-11T07:17:02.299Z,1005.5
2018-10-11T07:18:12.109Z,1005.52
2018-10-11T07:19:22.282Z,1005.53
2018-10-11T07:20:33.098Z,1005.53
2018-10-11T07:21:43.208Z,1005.56
2018-10-11T07:22:53.334Z,1005.54
2018-10-11T07:24:03.411Z,1005.53
2018-10-11T07:25:13.492Z,1005.55
2018-10-11T07:26:23.631Z,1005.61
2018-10-11T07:27:33.501Z,1005.62
2018-10-11T07:28:43.812Z,1005.64
2018-10-11T07:29:53.913Z,1005.65
2018-10-11T07:31:04.016Z,1005.68
2018-10-11T07:32:13.594Z,1005.65
2018-10-11T07:33:23.681Z,1005.65
2018-10-11T07:34:33.623Z,1005.66
2018-10-11T07:35:44.419Z,1005.65
2018-10-11T07:36:53.988Z,1005.63
2018-10-11T07:38:04.077Z,1005.65
2018-10-11T07:39:13.669Z,1005.63
2018-10-11T07:40:23.834Z,1005.63
2018-10-11T07:41:34.467Z,1005.63
2018-10-11T07:42:44.298Z,1005.66
2018-10-11T07:43:54.372Z,1005.65
2018-10-11T07:45:04.512Z,1005.66
2018-10-11T07:46:14.600Z,1005.65
2018-10-11T07:47:24.681Z,1005.66
2018-10-11T07:48:34.506Z,1005.63
2018-10-11T07:49:44.614Z,1005.64
2018-10-11T07:50:55.029Z,1005.64
2018-10-11T07:52:04.604Z,1005.66
2018-10-11T07:53:14.461Z,1005.7
2018-10-11T07:54:24.552Z,1005.67
2018-10-11T07:55:34.646Z,1005.65
2018-10-11T07:56:44.523Z,1005.69
2018-10-11T07:57:54.622Z,1005.66
2018-10-11T07:59:05.696Z,1005.66
2018-10-11T08:00:15.796Z,1005.7
2018-10-11T08:01:26.013Z,1005.69
2018-10-11T08:02:35.854Z,1005.65
2018-10-11T08:03:45.947Z,1005.64
2018-10-11T08:04:55.743Z,1005.64
2018-10-11T08:06:06.076Z,1005.66
2018-10-11T08:07:16.364Z,1005.63
2018-10-11T08:08:27.190Z,1005.61
2018-10-11T08:09:37.989Z,1005.6
2018-10-11T08:10:48.222Z,1005.64
2018-10-11T08:11:59.508Z,1005.61
2018-10-11T08:13:10.561Z,1005.59
2018-10-11T08:14:20.965Z,1005.64
2018-10-11T08:15:30.545Z,1005.63
2018-10-11T08:16:40.472Z,1005.65
2018-10-11T08:17:52.228Z,1005.66
2018-10-11T08:19:04.852Z,1005.67
2018-10-11T08:20:16.262Z,1005.65
2018-10-11T08:21:25.995Z,1005.65
2018-10-11T08:22:36.092Z,1005.63
2018-10-11T08:23:45.635Z,1005.65
2018-10-11T08:24:55.816Z,1005.66
2018-10-11T08:26:06.401Z,1005.66
2018-10-11T08:27:19.296Z,1005.65
2018-10-11T08:28:29.714Z,1005.65
2018-10-11T08:29:39.807Z,1005.62
2018-10-11T08:30:49.950Z,1005.6
2018-10-11T08:32:00.118Z,1005.61
2018-10-11T08:33:10.284Z,1005.64
2018-10-11T08:34:20.996Z,1005.64
2018-10-11T08:35:31.066Z,1005.66
2018-10-11T08:36:40.904Z,1005.66
2018-10-11T08:37:51.178Z,1005.64
2018-10-11T08:39:04.635Z,1005.59
2018-10-11T08:40:14.709Z,1005.59
2018-10-11T08:41:24.546Z,1005.59
2018-10-11T08:42:34.387Z,1005.59
2018-10-11T08:43:44.549Z,1005.58
2018-10-11T08:44:55.037Z,1005.57
2018-10-11T08:46:05.133Z,1005.53
2018-10-11T08:47:15.257Z,1005.54
2018-10-11T08:48:25.363Z,1005.54
2018-10-11T08:49:35.707Z,1005.52
2018-10-11T08:50:45.826Z,1005.47
2018-10-11T08:51:56.543Z,1005.49
2018-10-11T08:53:07.216Z,1005.42
2018-10-11T08:54:17.317Z,1005.43
2018-10-11T08:55:27.430Z,1005.45
2018-10-11T08:56:38.600Z,1005.45
2018-10-11T08:57:48.744Z,1005.45
2018-10-11T08:58:59.293Z,1005.44
2018-10-11T09:00:09.349Z,1005.45
2018-10-11T09:01:18.961Z,1005.48
2018-10-11T09:02:29.055Z,1005.44
2018-10-11T09:03:39.268Z,1005.41
2018-10-11T09:04:49.328Z,1005.43
2018-10-11T09:05:59.471Z,1005.42
2018-10-11T09:07:09.295Z,1005.38
2018-10-11T09:08:19.452Z,1005.45
2018-10-11T09:09:29.559Z,1005.46
2018-10-11T09:10:40.246Z,1005.44
2018-10-11T09:11:50.580Z,1005.41
2018-10-11T09:13:00.564Z,1005.43
2018-10-11T09:14:10.400Z,1005.39
2018-10-11T09:15:20.486Z,1005.39
2018-10-11T09:16:30.593Z,1005.35
2018-10-11T09:17:40.697Z,1005.33
2018-10-11T09:18:50.567Z,1005.29
2018-10-11T09:20:00.796Z,1005.29
2018-10-11T09:21:10.912Z,1005.29
2018-10-11T09:22:21.443Z,1005.27
2018-10-11T09:23:31.264Z,1005.3
2018-10-11T09:24:41.354Z,1005.3
2018-10-11T09:25:51.465Z,1005.28
2018-10-11T09:27:01.575Z,1005.3
2018-10-11T09:28:11.679Z,1005.38
2018-10-11T09:29:21.753Z,1005.32
2018-10-11T09:30:32.086Z,1005.36
2018-10-11T09:31:42.212Z,1005.33
2018-10-11T09:32:52.312Z,1005.33
2018-10-11T09:34:02.413Z,1005.36
2018-10-11T09:35:12.518Z,1005.34
2018-10-11T09:36:22.627Z,1005.38
2018-10-11T09:37:32.787Z,1005.38
2018-10-11T09:38:42.602Z,1005.37
2018-10-11T09:39:52.417Z,1005.33
2018-10-11T09:41:02.517Z,1005.33
2018-10-11T09:42:12.615Z,1005.27
2018-10-11T09:43:22.749Z,1005.29
2018-10-11T09:44:32.837Z,1005.29
2018-10-11T09:45:42.938Z,1005.31
2018-10-11T09:46:52.779Z,1005.27
2018-10-11T09:48:03.352Z,1005.29
2018-10-11T09:49:13.437Z,1005.23
2018-10-11T09:50:23.512Z,1005.26
2018-10-11T09:51:33.617Z,1005.2
2018-10-11T09:52:43.721Z,1005.25
2018-10-11T09:53:53.916Z,1005.22
2018-10-11T09:55:04.369Z,1005.23
2018-10-11T09:56:14.463Z,1005.22
2018-10-11T09:57:24.959Z,1005.18
2018-10-11T09:58:35.045Z,1005.19
2018-10-11T09:59:45.022Z,1005.19
2018-10-11T10:00:55.119Z,1005.16
2018-10-11T10:02:05.357Z,1005.14
2018-10-11T10:03:15.459Z,1005.17
2018-10-11T10:04:25.600Z,1005.17
2018-10-11T10:05:35.449Z,1005.15
2018-10-11T10:06:45.616Z,1005.13
2018-10-11T10:07:55.695Z,1005.09
2018-10-11T10:09:07.591Z,1005.16
2018-10-11T10:10:17.500Z,1005.13
2018-10-11T10:11:28.860Z,1005.08
2018-10-11T10:12:43.066Z,1005.05
2018-10-11T10:13:53.846Z,1005.05
2018-10-11T10:15:05.462Z,1005.11
2018-10-11T10:16:15.562Z,1005.11
2018-10-11T10:17:25.658Z,1005.09
2018-10-11T10:18:35.530Z,1005.06
2018-10-11T10:19:45.783Z,1005.03
2018-10-11T10:20:55.103Z,1005.05
2018-10-11T10:22:05.433Z,1005
2018-10-11T10:23:14.993Z,1004.96
2018-10-11T10:24:24.964Z,1004.91
2018-10-11T10:25:37.618Z,1004.9
2018-10-11T10:26:48.954Z,1004.94
2018-10-11T10:27:59.709Z,1004.85
2018-10-11T10:29:09.936Z,1004.91
2018-10-11T10:30:20.060Z,1004.91
2018-10-11T10:31:29.883Z,1004.89
2018-10-11T10:32:39.741Z,1004.88
2018-10-11T10:33:49.326Z,1004.92
2018-10-11T10:34:59.745Z,1004.86
2018-10-11T10:36:09.901Z,1004.89
2018-10-11T10:37:19.752Z,1004.89
2018-10-11T10:38:29.830Z,1004.91
2018-10-11T10:39:39.708Z,1004.88
2018-10-11T10:40:50.033Z,1004.84
2018-10-11T10:41:59.842Z,1004.81
2018-10-11T10:43:10.186Z,1004.78
2018-10-11T10:44:20.270Z,1004.78
2018-10-11T10:45:30.098Z,1004.84
2018-10-11T10:46:40.016Z,1004.75
2018-10-11T10:47:50.104Z,1004.72
2018-10-11T10:49:00.267Z,1004.77
2018-10-11T10:50:10.365Z,1004.71
2018-10-11T10:51:20.470Z,1004.7
2018-10-11T10:52:30.711Z,1004.66
2018-10-11T10:53:40.538Z,1004.64
2018-10-11T10:54:50.743Z,1004.73
2018-10-11T10:56:04.065Z,1004.64
2018-10-11T10:57:14.169Z,1004.66
2018-10-11T10:58:24.224Z,1004.67
2018-10-11T10:59:34.101Z,1004.6
2018-10-11T11:00:44.258Z,1004.61
2018-10-11T11:01:54.380Z,1004.62
2018-10-11T11:03:04.484Z,1004.61
2018-10-11T11:04:14.411Z,1004.59
2018-10-11T11:05:24.501Z,1004.63
2018-10-11T11:06:34.593Z,1004.64
2018-10-11T11:07:44.429Z,1004.6
2018-10-11T11:08:54.523Z,1004.59
2018-10-11T11:10:04.619Z,1004.53
2018-10-11T11:11:14.703Z,1004.53
2018-10-11T11:12:24.546Z,1004.5
2018-10-11T11:13:34.638Z,1004.55
2018-10-11T11:14:44.907Z,1004.5
2018-10-11T11:15:55.039Z,1004.5
2018-10-11T11:17:04.863Z,1004.45
2018-10-11T11:18:14.959Z,1004.45
2018-10-11T11:19:25.060Z,1004.43
2018-10-11T11:20:35.154Z,1004.45
2018-10-11T11:21:45.293Z,1004.42
2018-10-11T11:22:55.404Z,1004.4
2018-10-11T11:24:05.674Z,1004.38
2018-10-11T11:25:15.558Z,1004.38
2018-10-11T11:26:26.039Z,1004.35
2018-10-11T11:27:36.128Z,1004.35
2018-10-11T11:28:46.217Z,1004.33
2018-10-11T11:29:56.357Z,1004.35
2018-10-11T11:31:07.048Z,1004.3
2018-10-11T11:32:17.424Z,1004.31
2018-10-11T11:33:27.580Z,1004.33
2018-10-11T11:34:37.698Z,1004.27
2018-10-11T11:35:48.036Z,1004.25
2018-10-11T11:36:58.137Z,1004.26
2018-10-11T11:38:09.527Z,1004.26
2018-10-11T11:39:19.565Z,1004.23
2018-10-11T11:40:29.680Z,1004.17
2018-10-11T11:41:39.794Z,1004.25
2018-10-11T11:42:49.890Z,1004.16
2018-10-11T11:43:59.996Z,1004.2
2018-10-11T11:45:10.136Z,1004.2
2018-10-11T11:46:20.211Z,1004.18
2018-10-11T11:47:30.341Z,1004.17
2018-10-11T11:48:40.431Z,1004.19
2018-10-11T11:49:50.663Z,1004.14
2018-10-11T11:51:03.857Z,1004.11
2018-10-11T11:52:13.730Z,1004.12
2018-10-11T11:53:23.861Z,1004.1
2018-10-11T11:54:33.975Z,1004.06
2018-10-11T11:55:44.055Z,1004.07
2018-10-11T11:56:53.949Z,1004.07
2018-10-11T11:58:05.583Z,1004.05
2018-10-11T11:59:15.691Z,1004.05
2018-10-11T12:00:25.861Z,1004.07
2018-10-11T12:01:35.948Z,1003.97
2018-10-11T12:02:46.198Z,1003.98
2018-10-11T12:03:56.618Z,1004.05
2018-10-11T12:05:07.017Z,1004.03
2018-10-11T12:06:17.701Z,1004.03
2018-10-11T12:07:28.279Z,1004.03
2018-10-11T12:08:38.428Z,1004
2018-10-11T12:09:48.505Z,1004.01
2018-10-11T12:10:58.651Z,1003.99
2018-10-11T12:12:08.769Z,1004.03
2018-10-11T12:13:18.860Z,1003.97
2018-10-11T12:14:28.758Z,1003.95
2018-10-11T12:15:38.857Z,1003.92
2018-10-11T12:16:49.100Z,1003.95
2018-10-11T12:17:58.976Z,1003.98
2018-10-11T12:19:09.054Z,1003.98
2018-10-11T12:20:18.980Z,1003.97
2018-10-11T12:21:29.089Z,1004.02
2018-10-11T12:22:39.184Z,1003.96
2018-10-11T12:23:49.274Z,1004
2018-10-11T12:24:59.201Z,1003.97
2018-10-11T12:26:09.469Z,1003.97
2018-10-11T12:27:19.607Z,1003.9
2018-10-11T12:28:29.540Z,1003.9
2018-10-11T12:29:40.535Z,1003.95
2018-10-11T12:30:50.635Z,1003.88
2018-10-11T12:32:00.504Z,1003.93
2018-10-11T12:33:10.325Z,1003.86
2018-10-11T12:34:20.415Z,1003.85
2018-10-11T12:35:30.616Z,1003.9
2018-10-11T12:36:40.752Z,1003.89
2018-10-11T12:37:51.346Z,1003.88
2018-10-11T12:39:03.403Z,1003.8
2018-10-11T12:40:12.989Z,1003.84
2018-10-11T12:41:24.322Z,1003.87
2018-10-11T12:42:34.547Z,1003.81
2018-10-11T12:43:45.451Z,1003.78
2018-10-11T12:44:55.575Z,1003.8
2018-10-11T12:46:05.792Z,1003.75
2018-10-11T12:47:15.886Z,1003.8
2018-10-11T12:48:26.216Z,1003.72
2018-10-11T12:49:39.228Z,1003.76
2018-10-11T12:50:55.910Z,1003.73
2018-10-11T12:52:06.193Z,1003.69
2018-10-11T12:53:16.976Z,1003.69
2018-10-11T12:54:27.160Z,1003.71
2018-10-11T12:55:37.328Z,1003.66
2018-10-11T12:56:47.689Z,1003.69
2018-10-11T12:57:58.493Z,1003.68
2018-10-11T12:59:08.585Z,1003.72
2018-10-11T13:00:18.679Z,1003.62
2018-10-11T13:01:28.519Z,1003.62
2018-10-11T13:02:38.644Z,1003.68
2018-10-11T13:03:49.368Z,1003.67
2018-10-11T13:04:59.449Z,1003.7
2018-10-11T13:06:09.269Z,1003.69
2018-10-11T13:07:19.389Z,1003.66
2018-10-11T13:08:29.535Z,1003.6
2018-10-11T13:09:39.628Z,1003.64
2018-10-11T13:10:49.823Z,1003.74
2018-10-11T13:11:59.643Z,1003.63
2018-10-11T13:13:09.805Z,1003.66
2018-10-11T13:14:20.309Z,1003.68
2018-10-11T13:15:30.480Z,1003.69
2018-10-11T13:16:40.477Z,1003.7
2018-10-11T13:17:50.357Z,1003.72
2018-10-11T13:19:03.100Z,1003.7
2018-10-11T13:20:13.220Z,1003.74
2018-10-11T13:21:23.078Z,1003.74
2018-10-11T13:22:33.172Z,1003.69
2018-10-11T13:23:43.351Z,1003.74
2018-10-11T13:24:53.438Z,1003.69
2018-10-11T13:26:04.934Z,1003.63
2018-10-11T13:27:15.022Z,1003.65
2018-10-11T13:28:25.112Z,1003.63
2018-10-11T13:29:34.995Z,1003.68
2018-10-11T13:30:45.101Z,1003.69
2018-10-11T13:31:55.438Z,1003.67
2018-10-11T13:33:05.601Z,1003.67
2018-10-11T13:34:15.704Z,1003.59
2018-10-11T13:35:25.327Z,1003.66
2018-10-11T13:36:35.628Z,1003.64
2018-10-11T13:37:45.480Z,1003.63
2018-10-11T13:38:55.625Z,1003.61
2018-10-11T13:40:05.753Z,1003.64
2018-10-11T13:41:15.656Z,1003.66
2018-10-11T13:42:26.738Z,1003.57
2018-10-11T13:43:36.851Z,1003.62
2018-10-11T13:44:46.963Z,1003.54
2018-10-11T13:46:00.109Z,1003.59
2018-10-11T13:47:11.780Z,1003.6
2018-10-11T13:48:22.294Z,1003.61
2018-10-11T13:49:32.406Z,1003.58
2018-10-11T13:50:42.520Z,1003.59
2018-10-11T13:51:52.639Z,1003.58
2018-10-11T13:53:02.586Z,1003.59
2018-10-11T13:54:21.356Z,1003.56
2018-10-11T13:55:31.191Z,1003.55
2018-10-11T13:56:44.734Z,1003.58
2018-10-11T13:58:08.427Z,1003.54
2018-10-11T13:59:18.540Z,1003.57
2018-10-11T14:00:28.635Z,1003.57
2018-10-11T14:01:38.753Z,1003.55
2018-10-11T14:02:48.848Z,1003.51
2018-10-11T14:03:58.962Z,1003.5
2018-10-11T14:05:08.775Z,1003.5
2018-10-11T14:06:18.870Z,1003.53
2018-10-11T14:07:28.686Z,1003.52
2018-10-11T14:08:38.680Z,1003.45
2018-10-11T14:09:48.804Z,1003.46
2018-10-11T14:10:58.902Z,1003.51
2018-10-11T14:12:10.181Z,1003.48
2018-10-11T14:13:20.778Z,1003.46
2018-10-11T14:14:31.041Z,1003.4
2018-10-11T14:15:41.238Z,1003.42
2018-10-11T14:16:51.022Z,1003.44
2018-10-11T14:18:07.628Z,1003.49
2018-10-11T14:19:20.510Z,1003.43
2018-10-11T14:20:30.885Z,1003.44
2018-10-11T14:21:40.515Z,1003.45
2018-10-11T14:22:50.621Z,1003.48
2018-10-11T14:24:00.886Z,1003.46
2018-10-11T14:25:11.745Z,1003.41
2018-10-11T14:26:24.797Z,1003.49
2018-10-11T14:27:37.990Z,1003.49
2018-10-11T14:28:50.720Z,1003.46
2018-10-11T14:30:03.726Z,1003.46
2018-10-11T14:31:16.946Z,1003.42
2018-10-11T14:32:30.116Z,1003.41
2018-10-11T14:33:43.372Z,1003.4
2018-10-11T14:34:57.015Z,1003.43
2018-10-11T14:36:10.756Z,1003.43
2018-10-11T14:37:24.513Z,1003.48
2018-10-11T14:38:37.060Z,1003.44
2018-10-11T14:39:48.985Z,1003.39
2018-10-11T14:41:03.976Z,1003.42
2018-10-11T14:42:18.415Z,1003.41
2018-10-11T14:43:29.056Z,1003.42
2018-10-11T14:44:39.372Z,1003.41
2018-10-11T14:45:49.495Z,1003.35